sensor_id;sensor_type;location;lat;lon;timestamp;P1;durP1;ratioP1;P2;durP2;ratioP2
21235;SDS011;10775;42.678;26.324;2023-11-19T00:01:00;0.20;;;0.10;;
21235;SDS011;10775;42.678;26.324;2023-11-19T00:03:26;0.65;;;0.17;;
21235;SDS011;10775;42.678;26.324;2023-11-19T00:05:51;0.35;;;0.10;;
21235;SDS011;10775;42.678;26.324;2023-11-19T00:08:17;0.20;;;0.10;;
21235;SDS011;10775;42.678;26.324;2023-11-19T00:10:42;0.10;;;0.10;;
21235;SDS011;10775;42.678;26.324;2023-11-19T00:13:08;0.20;;;0.10;;
21235;SDS011;10775;42.678;26.324;2023-11-19T00:15:35;0.20;;;0.10;;
21235;SDS011;10775;42.678;26.324;2023-11-19T00:18:00;0.03;;;0.00;;
21235;SDS011;10775;42.678;26.324;2023-11-19T00:20:29;0.10;;;0.10;;
21235;SDS011;10775;42.678;26.324;2023-11-19T00:22:55;0.10;;;0.10;;
21235;SDS011;10775;42.678;26.324;2023-11-19T00:25:21;0.22;;;0.13;;
21235;SDS011;10775;42.678;26.324;2023-11-19T00:27:47;0.10;;;0.10;;
21235;SDS011;10775;42.678;26.324;2023-11-19T00:30:14;0.30;;;0.20;;
21235;SDS011;10775;42.678;26.324;2023-11-19T00:32:40;0.20;;;0.10;;
21235;SDS011;10775;42.678;26.324;2023-11-19T00:35:06;0.10;;;0.10;;
21235;SDS011;10775;42.678;26.324;2023-11-19T00:37:32;0.30;;;0.10;;
21235;SDS011;10775;42.678;26.324;2023-11-19T00:39:58;0.10;;;0.10;;
21235;SDS011;10775;42.678;26.324;2023-11-19T00:42:24;0.22;;;0.10;;
21235;SDS011;10775;42.678;26.324;2023-11-19T00:44:50;0.10;;;0.10;;
21235;SDS011;10775;42.678;26.324;2023-11-19T00:47:15;0.20;;;0.10;;
21235;SDS011;10775;42.678;26.324;2023-11-19T00:49:41;0.32;;;0.10;;
21235;SDS011;10775;42.678;26.324;2023-11-19T00:52:07;0.10;;;0.10;;
21235;SDS011;10775;42.678;26.324;2023-11-19T00:54:33;0.10;;;0.10;;
21235;SDS011;10775;42.678;26.324;2023-11-19T00:56:58;0.30;;;0.08;;
21235;SDS011;10775;42.678;26.324;2023-11-19T00:59:24;0.10;;;0.10;;
21235;SDS011;10775;42.678;26.324;2023-11-19T01:01:49;0.10;;;0.10;;
21235;SDS011;10775;42.678;26.324;2023-11-19T01:04:16;0.35;;;0.10;;
21235;SDS011;10775;42.678;26.324;2023-11-19T01:06:41;0.10;;;0.10;;
21235;SDS011;10775;42.678;26.324;2023-11-19T01:09:07;0.47;;;0.10;;
21235;SDS011;10775;42.678;26.324;2023-11-19T01:11:34;0.13;;;0.10;;
21235;SDS011;10775;42.678;26.324;2023-11-19T01:13:59;0.25;;;0.10;;
21235;SDS011;10775;42.678;26.324;2023-11-19T01:16:25;0.10;;;0.10;;
21235;SDS011;10775;42.678;26.324;2023-11-19T01:18:51;0.40;;;0.20;;
21235;SDS011;10775;42.678;26.324;2023-11-19T01:21:17;0.75;;;0.25;;
21235;SDS011;10775;42.678;26.324;2023-11-19T01:23:43;0.20;;;0.10;;
21235;SDS011;10775;42.678;26.324;2023-11-19T01:26:09;0.50;;;0.20;;
21235;SDS011;10775;42.678;26.324;2023-11-19T01:28:38;0.50;;;0.28;;
21235;SDS011;10775;42.678;26.324;2023-11-19T01:31:11;0.10;;;0.10;;
21235;SDS011;10775;42.678;26.324;2023-11-19T01:33:38;0.08;;;0.00;;
21235;SDS011;10775;42.678;26.324;2023-11-19T01:36:03;0.20;;;0.10;;
21235;SDS011;10775;42.678;26.324;2023-11-19T01:38:29;0.40;;;0.10;;
21235;SDS011;10775;42.678;26.324;2023-11-19T01:40:56;0.15;;;0.10;;
21235;SDS011;10775;42.678;26.324;2023-11-19T01:43:35;0.20;;;0.10;;
21235;SDS011;10775;42.678;26.324;2023-11-19T01:46:01;0.00;;;0.00;;
21235;SDS011;10775;42.678;26.324;2023-11-19T01:48:28;0.20;;;0.10;;
21235;SDS011;10775;42.678;26.324;2023-11-19T01:50:55;0.10;;;0.10;;
21235;SDS011;10775;42.678;26.324;2023-11-19T01:53:22;0.15;;;0.10;;
21235;SDS011;10775;42.678;26.324;2023-11-19T01:55:47;0.20;;;0.10;;
21235;SDS011;10775;42.678;26.324;2023-11-19T01:58:13;0.03;;;0.00;;
21235;SDS011;10775;42.678;26.324;2023-11-19T02:00:40;1.17;;;0.10;;
21235;SDS011;10775;42.678;26.324;2023-11-19T02:03:08;0.17;;;0.10;;
21235;SDS011;10775;42.678;26.324;2023-11-19T02:05:34;0.10;;;0.10;;
21235;SDS011;10775;42.678;26.324;2023-11-19T02:08:01;0.10;;;0.05;;
21235;SDS011;10775;42.678;26.324;2023-11-19T02:10:26;0.13;;;0.10;;
21235;SDS011;10775;42.678;26.324;2023-11-19T02:12:52;0.20;;;0.00;;
21235;SDS011;10775;42.678;26.324;2023-11-19T02:15:17;0.10;;;0.10;;
21235;SDS011;10775;42.678;26.324;2023-11-19T02:17:49;0.20;;;0.10;;
21235;SDS011;10775;42.678;26.324;2023-11-19T02:20:16;0.10;;;0.10;;
21235;SDS011;10775;42.678;26.324;2023-11-19T02:22:41;0.80;;;0.20;;
21235;SDS011;10775;42.678;26.324;2023-11-19T02:25:08;0.20;;;0.20;;
21235;SDS011;10775;42.678;26.324;2023-11-19T02:30:25;0.40;;;0.30;;
21235;SDS011;10775;42.678;26.324;2023-11-19T02:32:54;0.77;;;0.40;;
21235;SDS011;10775;42.678;26.324;2023-11-19T02:35:26;1.70;;;1.10;;
21235;SDS011;10775;42.678;26.324;2023-11-19T02:37:53;1.10;;;0.90;;
21235;SDS011;10775;42.678;26.324;2023-11-19T02:40:19;0.47;;;0.30;;
21235;SDS011;10775;42.678;26.324;2023-11-19T02:42:45;0.50;;;0.50;;
21235;SDS011;10775;42.678;26.324;2023-11-19T02:45:10;1.02;;;0.70;;
21235;SDS011;10775;42.678;26.324;2023-11-19T02:47:40;0.88;;;0.75;;
21235;SDS011;10775;42.678;26.324;2023-11-19T02:50:08;0.75;;;0.65;;
21235;SDS011;10775;42.678;26.324;2023-11-19T02:52:43;2.05;;;1.35;;
21235;SDS011;10775;42.678;26.324;2023-11-19T02:55:10;1.75;;;0.70;;
21235;SDS011;10775;42.678;26.324;2023-11-19T02:57:39;0.85;;;0.80;;
21235;SDS011;10775;42.678;26.324;2023-11-19T03:00:11;1.05;;;0.82;;
21235;SDS011;10775;42.678;26.324;2023-11-19T03:02:41;1.25;;;0.55;;
21235;SDS011;10775;42.678;26.324;2023-11-19T03:05:13;1.55;;;1.13;;
21235;SDS011;10775;42.678;26.324;2023-11-19T03:07:43;0.52;;;0.35;;
21235;SDS011;10775;42.678;26.324;2023-11-19T03:10:12;2.25;;;1.10;;
21235;SDS011;10775;42.678;26.324;2023-11-19T03:12:41;0.95;;;0.50;;
21235;SDS011;10775;42.678;26.324;2023-11-19T03:15:07;1.27;;;1.08;;
21235;SDS011;10775;42.678;26.324;2023-11-19T03:17:43;1.83;;;0.30;;
21235;SDS011;10775;42.678;26.324;2023-11-19T03:20:09;0.90;;;0.77;;
21235;SDS011;10775;42.678;26.324;2023-11-19T03:22:39;1.00;;;0.77;;
21235;SDS011;10775;42.678;26.324;2023-11-19T03:25:06;1.05;;;0.57;;
21235;SDS011;10775;42.678;26.324;2023-11-19T03:27:36;0.77;;;0.65;;
21235;SDS011;10775;42.678;26.324;2023-11-19T03:32:30;1.35;;;0.88;;
21235;SDS011;10775;42.678;26.324;2023-11-19T03:34:57;1.17;;;0.60;;
21235;SDS011;10775;42.678;26.324;2023-11-19T03:37:23;1.50;;;1.10;;
21235;SDS011;10775;42.678;26.324;2023-11-19T03:39:49;1.52;;;0.63;;
21235;SDS011;10775;42.678;26.324;2023-11-19T03:42:14;2.30;;;1.20;;
21235;SDS011;10775;42.678;26.324;2023-11-19T03:44:40;2.28;;;1.00;;
21235;SDS011;10775;42.678;26.324;2023-11-19T03:47:05;0.60;;;0.50;;
21235;SDS011;10775;42.678;26.324;2023-11-19T03:49:31;6.50;;;0.68;;
21235;SDS011;10775;42.678;26.324;2023-11-19T03:51:57;1.50;;;0.85;;
21235;SDS011;10775;42.678;26.324;2023-11-19T03:54:22;1.17;;;0.73;;
21235;SDS011;10775;42.678;26.324;2023-11-19T03:56:48;0.50;;;0.40;;
21235;SDS011;10775;42.678;26.324;2023-11-19T03:59:14;1.80;;;1.40;;
21235;SDS011;10775;42.678;26.324;2023-11-19T04:01:40;1.45;;;1.00;;
21235;SDS011;10775;42.678;26.324;2023-11-19T04:04:06;2.88;;;1.50;;
21235;SDS011;10775;42.678;26.324;2023-11-19T04:06:31;2.28;;;1.40;;
21235;SDS011;10775;42.678;26.324;2023-11-19T04:08:57;1.00;;;0.80;;
21235;SDS011;10775;42.678;26.324;2023-11-19T04:11:22;1.83;;;1.58;;
21235;SDS011;10775;42.678;26.324;2023-11-19T04:13:48;1.88;;;1.30;;
21235;SDS011;10775;42.678;26.324;2023-11-19T04:16:13;2.65;;;1.60;;
21235;SDS011;10775;42.678;26.324;2023-11-19T04:18:40;1.13;;;0.70;;
21235;SDS011;10775;42.678;26.324;2023-11-19T04:21:06;1.38;;;0.88;;
21235;SDS011;10775;42.678;26.324;2023-11-19T04:23:32;1.42;;;0.75;;
21235;SDS011;10775;42.678;26.324;2023-11-19T04:25:57;1.02;;;0.60;;
21235;SDS011;10775;42.678;26.324;2023-11-19T04:28:23;0.90;;;0.60;;
21235;SDS011;10775;42.678;26.324;2023-11-19T04:30:52;1.23;;;0.50;;
21235;SDS011;10775;42.678;26.324;2023-11-19T04:33:17;0.93;;;0.80;;
21235;SDS011;10775;42.678;26.324;2023-11-19T04:35:43;1.67;;;0.80;;
21235;SDS011;10775;42.678;26.324;2023-11-19T04:38:08;1.45;;;0.70;;
21235;SDS011;10775;42.678;26.324;2023-11-19T04:40:34;1.27;;;0.82;;
21235;SDS011;10775;42.678;26.324;2023-11-19T04:42:59;1.02;;;0.77;;
21235;SDS011;10775;42.678;26.324;2023-11-19T04:45:24;1.40;;;1.10;;
21235;SDS011;10775;42.678;26.324;2023-11-19T04:47:50;1.52;;;1.05;;
21235;SDS011;10775;42.678;26.324;2023-11-19T04:50:15;1.85;;;1.33;;
21235;SDS011;10775;42.678;26.324;2023-11-19T04:52:41;0.55;;;0.47;;
21235;SDS011;10775;42.678;26.324;2023-11-19T04:55:10;1.20;;;0.60;;
21235;SDS011;10775;42.678;26.324;2023-11-19T04:57:36;1.05;;;0.60;;
21235;SDS011;10775;42.678;26.324;2023-11-19T05:00:02;2.08;;;1.45;;
21235;SDS011;10775;42.678;26.324;2023-11-19T05:02:30;1.83;;;1.33;;
21235;SDS011;10775;42.678;26.324;2023-11-19T05:04:56;1.25;;;0.60;;
21235;SDS011;10775;42.678;26.324;2023-11-19T05:07:22;1.25;;;0.82;;
21235;SDS011;10775;42.678;26.324;2023-11-19T05:09:47;2.72;;;1.60;;
21235;SDS011;10775;42.678;26.324;2023-11-19T05:12:13;1.08;;;0.88;;
21235;SDS011;10775;42.678;26.324;2023-11-19T05:14:38;0.45;;;0.40;;
21235;SDS011;10775;42.678;26.324;2023-11-19T05:17:04;1.65;;;0.80;;
21235;SDS011;10775;42.678;26.324;2023-11-19T05:19:29;1.35;;;0.60;;
21235;SDS011;10775;42.678;26.324;2023-11-19T05:21:55;0.73;;;0.65;;
21235;SDS011;10775;42.678;26.324;2023-11-19T05:24:20;2.42;;;1.42;;
21235;SDS011;10775;42.678;26.324;2023-11-19T05:26:45;2.35;;;1.10;;
21235;SDS011;10775;42.678;26.324;2023-11-19T05:29:12;2.42;;;1.45;;
21235;SDS011;10775;42.678;26.324;2023-11-19T05:31:37;1.05;;;0.60;;
21235;SDS011;10775;42.678;26.324;2023-11-19T05:34:03;1.40;;;0.75;;
21235;SDS011;10775;42.678;26.324;2023-11-19T05:36:29;1.02;;;0.70;;
21235;SDS011;10775;42.678;26.324;2023-11-19T05:38:54;1.13;;;0.60;;
21235;SDS011;10775;42.678;26.324;2023-11-19T05:41:20;1.15;;;0.65;;
21235;SDS011;10775;42.678;26.324;2023-11-19T05:43:45;2.20;;;0.65;;
21235;SDS011;10775;42.678;26.324;2023-11-19T05:46:11;1.33;;;0.47;;
21235;SDS011;10775;42.678;26.324;2023-11-19T05:48:38;1.63;;;0.80;;
21235;SDS011;10775;42.678;26.324;2023-11-19T05:51:04;2.25;;;1.40;;
21235;SDS011;10775;42.678;26.324;2023-11-19T05:53:30;1.10;;;0.80;;
21235;SDS011;10775;42.678;26.324;2023-11-19T05:55:56;1.13;;;0.55;;
21235;SDS011;10775;42.678;26.324;2023-11-19T05:58:25;1.27;;;0.77;;
21235;SDS011;10775;42.678;26.324;2023-11-19T06:00:53;1.83;;;0.50;;
21235;SDS011;10775;42.678;26.324;2023-11-19T06:03:19;1.13;;;0.70;;
21235;SDS011;10775;42.678;26.324;2023-11-19T06:05:46;0.50;;;0.45;;
21235;SDS011;10775;42.678;26.324;2023-11-19T06:08:12;1.60;;;1.05;;
21235;SDS011;10775;42.678;26.324;2023-11-19T06:10:41;1.27;;;0.68;;
21235;SDS011;10775;42.678;26.324;2023-11-19T06:13:07;2.95;;;0.95;;
21235;SDS011;10775;42.678;26.324;2023-11-19T06:15:35;1.23;;;0.75;;
21235;SDS011;10775;42.678;26.324;2023-11-19T06:18:01;1.10;;;0.85;;
21235;SDS011;10775;42.678;26.324;2023-11-19T06:20:28;1.05;;;0.70;;
21235;SDS011;10775;42.678;26.324;2023-11-19T06:22:58;1.75;;;1.10;;
21235;SDS011;10775;42.678;26.324;2023-11-19T06:25:23;1.27;;;0.70;;
21235;SDS011;10775;42.678;26.324;2023-11-19T06:27:49;2.65;;;1.70;;
21235;SDS011;10775;42.678;26.324;2023-11-19T06:30:15;2.67;;;1.85;;
21235;SDS011;10775;42.678;26.324;2023-11-19T06:32:41;1.00;;;0.80;;
21235;SDS011;10775;42.678;26.324;2023-11-19T06:35:07;2.15;;;0.95;;
21235;SDS011;10775;42.678;26.324;2023-11-19T06:37:33;2.50;;;1.52;;
21235;SDS011;10775;42.678;26.324;2023-11-19T06:39:58;1.83;;;1.20;;
21235;SDS011;10775;42.678;26.324;2023-11-19T06:42:24;2.28;;;1.38;;
21235;SDS011;10775;42.678;26.324;2023-11-19T06:44:49;2.22;;;1.00;;
21235;SDS011;10775;42.678;26.324;2023-11-19T06:47:15;0.93;;;0.55;;
21235;SDS011;10775;42.678;26.324;2023-11-19T06:49:43;1.40;;;1.10;;
21235;SDS011;10775;42.678;26.324;2023-11-19T06:52:09;0.93;;;0.60;;
21235;SDS011;10775;42.678;26.324;2023-11-19T06:54:34;1.90;;;1.20;;
21235;SDS011;10775;42.678;26.324;2023-11-19T06:57:00;1.60;;;0.80;;
21235;SDS011;10775;42.678;26.324;2023-11-19T06:59:26;1.55;;;1.23;;
21235;SDS011;10775;42.678;26.324;2023-11-19T07:01:51;3.72;;;1.60;;
21235;SDS011;10775;42.678;26.324;2023-11-19T07:04:16;1.33;;;0.85;;
21235;SDS011;10775;42.678;26.324;2023-11-19T07:06:42;0.98;;;0.40;;
21235;SDS011;10775;42.678;26.324;2023-11-19T07:09:08;1.13;;;0.55;;
21235;SDS011;10775;42.678;26.324;2023-11-19T07:11:40;1.15;;;0.77;;
21235;SDS011;10775;42.678;26.324;2023-11-19T07:14:09;1.50;;;0.80;;
21235;SDS011;10775;42.678;26.324;2023-11-19T07:16:35;1.80;;;1.05;;
21235;SDS011;10775;42.678;26.324;2023-11-19T07:19:06;2.28;;;0.82;;
21235;SDS011;10775;42.678;26.324;2023-11-19T07:21:32;2.72;;;1.85;;
21235;SDS011;10775;42.678;26.324;2023-11-19T07:23:58;2.80;;;1.80;;
21235;SDS011;10775;42.678;26.324;2023-11-19T07:26:24;1.02;;;0.65;;
21235;SDS011;10775;42.678;26.324;2023-11-19T07:28:50;1.85;;;1.02;;
21235;SDS011;10775;42.678;26.324;2023-11-19T07:31:16;1.20;;;0.90;;
21235;SDS011;10775;42.678;26.324;2023-11-19T07:33:44;1.67;;;1.10;;
21235;SDS011;10775;42.678;26.324;2023-11-19T07:36:13;2.08;;;1.35;;
21235;SDS011;10775;42.678;26.324;2023-11-19T07:38:39;0.73;;;0.55;;
21235;SDS011;10775;42.678;26.324;2023-11-19T07:41:05;1.05;;;0.80;;
21235;SDS011;10775;42.678;26.324;2023-11-19T07:43:31;2.72;;;1.95;;
21235;SDS011;10775;42.678;26.324;2023-11-19T07:45:56;2.10;;;1.35;;
21235;SDS011;10775;42.678;26.324;2023-11-19T07:48:24;2.92;;;2.10;;
21235;SDS011;10775;42.678;26.324;2023-11-19T07:50:50;2.35;;;1.23;;
21235;SDS011;10775;42.678;26.324;2023-11-19T07:53:17;2.65;;;1.65;;
21235;SDS011;10775;42.678;26.324;2023-11-19T07:55:43;2.45;;;1.38;;
21235;SDS011;10775;42.678;26.324;2023-11-19T07:58:09;2.15;;;1.17;;
21235;SDS011;10775;42.678;26.324;2023-11-19T08:00:35;2.75;;;1.70;;
21235;SDS011;10775;42.678;26.324;2023-11-19T08:03:02;3.40;;;1.40;;
21235;SDS011;10775;42.678;26.324;2023-11-19T08:05:28;3.67;;;1.73;;
21235;SDS011;10775;42.678;26.324;2023-11-19T08:07:53;4.68;;;2.15;;
21235;SDS011;10775;42.678;26.324;2023-11-19T08:10:19;2.92;;;1.90;;
21235;SDS011;10775;42.678;26.324;2023-11-19T08:12:45;2.63;;;1.25;;
21235;SDS011;10775;42.678;26.324;2023-11-19T08:15:10;3.30;;;1.50;;
21235;SDS011;10775;42.678;26.324;2023-11-19T08:17:36;0.82;;;0.63;;
21235;SDS011;10775;42.678;26.324;2023-11-19T08:20:02;1.67;;;1.08;;
21235;SDS011;10775;42.678;26.324;2023-11-19T08:22:29;2.60;;;1.10;;
21235;SDS011;10775;42.678;26.324;2023-11-19T08:24:55;1.52;;;0.63;;
21235;SDS011;10775;42.678;26.324;2023-11-19T08:27:21;3.47;;;1.85;;
21235;SDS011;10775;42.678;26.324;2023-11-19T08:29:52;2.05;;;1.35;;
21235;SDS011;10775;42.678;26.324;2023-11-19T08:32:20;2.20;;;1.70;;
21235;SDS011;10775;42.678;26.324;2023-11-19T08:34:46;2.45;;;1.83;;
21235;SDS011;10775;42.678;26.324;2023-11-19T08:37:11;3.15;;;1.83;;
21235;SDS011;10775;42.678;26.324;2023-11-19T08:39:38;3.05;;;1.73;;
21235;SDS011;10775;42.678;26.324;2023-11-19T08:42:03;1.98;;;1.52;;
21235;SDS011;10775;42.678;26.324;2023-11-19T08:44:29;3.10;;;1.95;;
21235;SDS011;10775;42.678;26.324;2023-11-19T08:46:54;0.75;;;0.47;;
21235;SDS011;10775;42.678;26.324;2023-11-19T08:49:20;2.90;;;2.08;;
21235;SDS011;10775;42.678;26.324;2023-11-19T08:51:45;4.45;;;2.58;;
21235;SDS011;10775;42.678;26.324;2023-11-19T08:54:11;1.60;;;1.20;;
21235;SDS011;10775;42.678;26.324;2023-11-19T08:56:37;2.58;;;1.63;;
21235;SDS011;10775;42.678;26.324;2023-11-19T08:59:04;4.38;;;2.47;;
21235;SDS011;10775;42.678;26.324;2023-11-19T09:01:30;0.88;;;0.65;;
21235;SDS011;10775;42.678;26.324;2023-11-19T09:03:55;3.60;;;2.42;;
21235;SDS011;10775;42.678;26.324;2023-11-19T09:06:20;2.25;;;1.55;;
21235;SDS011;10775;42.678;26.324;2023-11-19T09:08:46;4.72;;;2.25;;
21235;SDS011;10775;42.678;26.324;2023-11-19T09:11:11;2.55;;;1.48;;
21235;SDS011;10775;42.678;26.324;2023-11-19T09:13:37;2.67;;;1.25;;
21235;SDS011;10775;42.678;26.324;2023-11-19T09:16:02;3.58;;;2.05;;
21235;SDS011;10775;42.678;26.324;2023-11-19T09:18:31;2.08;;;1.30;;
21235;SDS011;10775;42.678;26.324;2023-11-19T09:20:57;6.35;;;2.72;;
21235;SDS011;10775;42.678;26.324;2023-11-19T09:23:23;3.10;;;1.80;;
21235;SDS011;10775;42.678;26.324;2023-11-19T09:25:50;3.58;;;2.25;;
21235;SDS011;10775;42.678;26.324;2023-11-19T09:28:16;3.22;;;1.73;;
21235;SDS011;10775;42.678;26.324;2023-11-19T09:30:41;2.90;;;1.90;;
21235;SDS011;10775;42.678;26.324;2023-11-19T09:33:07;4.43;;;2.58;;
21235;SDS011;10775;42.678;26.324;2023-11-19T09:35:32;2.53;;;1.80;;
21235;SDS011;10775;42.678;26.324;2023-11-19T09:37:58;3.13;;;2.17;;
21235;SDS011;10775;42.678;26.324;2023-11-19T09:40:24;5.10;;;2.47;;
21235;SDS011;10775;42.678;26.324;2023-11-19T09:42:50;1.83;;;1.15;;
21235;SDS011;10775;42.678;26.324;2023-11-19T09:45:16;3.90;;;2.47;;
21235;SDS011;10775;42.678;26.324;2023-11-19T09:47:43;1.35;;;1.05;;
21235;SDS011;10775;42.678;26.324;2023-11-19T09:50:19;3.90;;;2.78;;
21235;SDS011;10775;42.678;26.324;2023-11-19T09:52:45;2.70;;;1.52;;
21235;SDS011;10775;42.678;26.324;2023-11-19T09:55:11;2.00;;;1.25;;
21235;SDS011;10775;42.678;26.324;2023-11-19T09:57:40;3.00;;;0.65;;
21235;SDS011;10775;42.678;26.324;2023-11-19T10:00:08;0.60;;;0.40;;
21235;SDS011;10775;42.678;26.324;2023-11-19T10:02:35;3.20;;;1.00;;
21235;SDS011;10775;42.678;26.324;2023-11-19T10:05:03;2.50;;;1.15;;
21235;SDS011;10775;42.678;26.324;2023-11-19T10:07:31;2.15;;;1.35;;
21235;SDS011;10775;42.678;26.324;2023-11-19T10:10:00;0.52;;;0.52;;
21235;SDS011;10775;42.678;26.324;2023-11-19T10:12:29;2.55;;;1.52;;
21235;SDS011;10775;42.678;26.324;2023-11-19T10:14:58;3.25;;;1.88;;
21235;SDS011;10775;42.678;26.324;2023-11-19T10:17:28;2.38;;;1.27;;
21235;SDS011;10775;42.678;26.324;2023-11-19T10:19:57;0.68;;;0.35;;
21235;SDS011;10775;42.678;26.324;2023-11-19T10:22:23;2.95;;;1.70;;
21235;SDS011;10775;42.678;26.324;2023-11-19T10:24:50;1.23;;;0.77;;
21235;SDS011;10775;42.678;26.324;2023-11-19T10:27:15;2.47;;;1.23;;
21235;SDS011;10775;42.678;26.324;2023-11-19T10:29:43;2.70;;;1.83;;
21235;SDS011;10775;42.678;26.324;2023-11-19T10:32:10;3.78;;;1.70;;
21235;SDS011;10775;42.678;26.324;2023-11-19T10:34:37;2.60;;;1.83;;
21235;SDS011;10775;42.678;26.324;2023-11-19T10:37:04;3.28;;;2.50;;
21235;SDS011;10775;42.678;26.324;2023-11-19T10:42:21;2.15;;;1.55;;
21235;SDS011;10775;42.678;26.324;2023-11-19T10:44:46;4.03;;;2.08;;
21235;SDS011;10775;42.678;26.324;2023-11-19T10:47:13;2.20;;;1.38;;
21235;SDS011;10775;42.678;26.324;2023-11-19T10:49:40;2.60;;;1.90;;
21235;SDS011;10775;42.678;26.324;2023-11-19T10:52:07;2.30;;;1.40;;
21235;SDS011;10775;42.678;26.324;2023-11-19T10:54:34;2.38;;;1.60;;
21235;SDS011;10775;42.678;26.324;2023-11-19T10:57:01;3.65;;;2.00;;
21235;SDS011;10775;42.678;26.324;2023-11-19T10:59:28;3.92;;;2.63;;
21235;SDS011;10775;42.678;26.324;2023-11-19T11:01:57;3.23;;;2.10;;
21235;SDS011;10775;42.678;26.324;2023-11-19T11:04:23;4.32;;;2.65;;
21235;SDS011;10775;42.678;26.324;2023-11-19T11:09:23;3.60;;;2.17;;
21235;SDS011;10775;42.678;26.324;2023-11-19T11:11:51;5.13;;;3.42;;
21235;SDS011;10775;42.678;26.324;2023-11-19T11:14:19;3.97;;;2.13;;
21235;SDS011;10775;42.678;26.324;2023-11-19T11:16:46;2.75;;;2.22;;
21235;SDS011;10775;42.678;26.324;2023-11-19T11:19:14;3.53;;;2.70;;
21235;SDS011;10775;42.678;26.324;2023-11-19T11:21:42;4.50;;;2.83;;
21235;SDS011;10775;42.678;26.324;2023-11-19T11:33:04;3.08;;;2.33;;
21235;SDS011;10775;42.678;26.324;2023-11-19T11:38:08;4.25;;;2.05;;
21235;SDS011;10775;42.678;26.324;2023-11-19T11:40:34;3.75;;;2.50;;
21235;SDS011;10775;42.678;26.324;2023-11-19T11:43:01;3.33;;;2.20;;
21235;SDS011;10775;42.678;26.324;2023-11-19T11:45:37;3.50;;;2.40;;
21235;SDS011;10775;42.678;26.324;2023-11-19T11:50:32;2.13;;;1.70;;
21235;SDS011;10775;42.678;26.324;2023-11-19T11:55:37;1.85;;;1.23;;
21235;SDS011;10775;42.678;26.324;2023-11-19T11:58:17;3.35;;;1.50;;
21235;SDS011;10775;42.678;26.324;2023-11-19T12:01:03;1.38;;;1.08;;
21235;SDS011;10775;42.678;26.324;2023-11-19T12:03:30;3.67;;;2.60;;
21235;SDS011;10775;42.678;26.324;2023-11-19T12:05:57;3.75;;;2.20;;
21235;SDS011;10775;42.678;26.324;2023-11-19T12:08:26;2.35;;;1.40;;
21235;SDS011;10775;42.678;26.324;2023-11-19T12:10:54;2.50;;;1.80;;
21235;SDS011;10775;42.678;26.324;2023-11-19T12:13:23;3.40;;;1.83;;
21235;SDS011;10775;42.678;26.324;2023-11-19T12:18:23;0.88;;;0.32;;
21235;SDS011;10775;42.678;26.324;2023-11-19T12:20:51;3.65;;;1.38;;
21235;SDS011;10775;42.678;26.324;2023-11-19T12:23:16;1.98;;;1.33;;
21235;SDS011;10775;42.678;26.324;2023-11-19T12:25:42;3.60;;;1.77;;
21235;SDS011;10775;42.678;26.324;2023-11-19T12:28:13;2.00;;;1.40;;
21235;SDS011;10775;42.678;26.324;2023-11-19T12:30:39;3.83;;;2.10;;
21235;SDS011;10775;42.678;26.324;2023-11-19T12:33:08;2.10;;;1.40;;
21235;SDS011;10775;42.678;26.324;2023-11-19T12:35:41;2.35;;;1.95;;
21235;SDS011;10775;42.678;26.324;2023-11-19T12:38:20;1.83;;;1.60;;
21235;SDS011;10775;42.678;26.324;2023-11-19T12:40:47;0.32;;;0.32;;
21235;SDS011;10775;42.678;26.324;2023-11-19T12:43:22;2.50;;;1.52;;
21235;SDS011;10775;42.678;26.324;2023-11-19T12:45:47;1.73;;;1.15;;
21235;SDS011;10775;42.678;26.324;2023-11-19T12:48:13;1.13;;;0.65;;
21235;SDS011;10775;42.678;26.324;2023-11-19T12:50:51;3.10;;;1.90;;
21235;SDS011;10775;42.678;26.324;2023-11-19T12:53:22;4.00;;;2.00;;
21235;SDS011;10775;42.678;26.324;2023-11-19T12:55:49;3.38;;;2.20;;
21235;SDS011;10775;42.678;26.324;2023-11-19T12:58:31;2.28;;;1.60;;
21235;SDS011;10775;42.678;26.324;2023-11-19T13:01:04;1.35;;;0.95;;
21235;SDS011;10775;42.678;26.324;2023-11-19T13:03:35;1.95;;;1.65;;
21235;SDS011;10775;42.678;26.324;2023-11-19T13:08:35;1.98;;;1.38;;
21235;SDS011;10775;42.678;26.324;2023-11-19T13:11:02;2.58;;;1.48;;
21235;SDS011;10775;42.678;26.324;2023-11-19T13:13:28;3.08;;;1.80;;
21235;SDS011;10775;42.678;26.324;2023-11-19T13:16:01;3.00;;;2.17;;
21235;SDS011;10775;42.678;26.324;2023-11-19T13:18:34;4.22;;;2.60;;
21235;SDS011;10775;42.678;26.324;2023-11-19T13:20:59;3.03;;;1.90;;
21235;SDS011;10775;42.678;26.324;2023-11-19T13:23:25;4.18;;;2.13;;
21235;SDS011;10775;42.678;26.324;2023-11-19T13:25:50;2.25;;;1.55;;
21235;SDS011;10775;42.678;26.324;2023-11-19T13:28:16;5.00;;;2.05;;
21235;SDS011;10775;42.678;26.324;2023-11-19T13:30:41;4.30;;;2.20;;
21235;SDS011;10775;42.678;26.324;2023-11-19T13:33:07;1.77;;;1.13;;
21235;SDS011;10775;42.678;26.324;2023-11-19T13:35:32;3.30;;;1.90;;
21235;SDS011;10775;42.678;26.324;2023-11-19T13:37:57;2.70;;;1.80;;
21235;SDS011;10775;42.678;26.324;2023-11-19T13:40:23;2.58;;;1.70;;
21235;SDS011;10775;42.678;26.324;2023-11-19T13:42:50;2.10;;;1.52;;
21235;SDS011;10775;42.678;26.324;2023-11-19T13:45:15;4.25;;;2.08;;
21235;SDS011;10775;42.678;26.324;2023-11-19T13:47:43;1.88;;;1.30;;
21235;SDS011;10775;42.678;26.324;2023-11-19T13:50:10;2.55;;;1.80;;
21235;SDS011;10775;42.678;26.324;2023-11-19T13:52:41;3.00;;;2.20;;
21235;SDS011;10775;42.678;26.324;2023-11-19T13:55:08;2.80;;;1.70;;
21235;SDS011;10775;42.678;26.324;2023-11-19T13:57:38;4.65;;;2.40;;
21235;SDS011;10775;42.678;26.324;2023-11-19T14:00:06;3.75;;;2.38;;
21235;SDS011;10775;42.678;26.324;2023-11-19T14:02:38;3.13;;;1.80;;
21235;SDS011;10775;42.678;26.324;2023-11-19T14:05:05;7.18;;;6.25;;
21235;SDS011;10775;42.678;26.324;2023-11-19T14:07:30;5.70;;;4.43;;
21235;SDS011;10775;42.678;26.324;2023-11-19T14:09:56;2.65;;;1.88;;
21235;SDS011;10775;42.678;26.324;2023-11-19T14:12:21;4.82;;;2.28;;
21235;SDS011;10775;42.678;26.324;2023-11-19T14:14:48;2.28;;;1.75;;
21235;SDS011;10775;42.678;26.324;2023-11-19T14:17:13;2.60;;;1.90;;
21235;SDS011;10775;42.678;26.324;2023-11-19T14:19:40;2.55;;;1.67;;
21235;SDS011;10775;42.678;26.324;2023-11-19T14:22:06;4.10;;;1.77;;
21235;SDS011;10775;42.678;26.324;2023-11-19T14:24:31;4.18;;;1.70;;
21235;SDS011;10775;42.678;26.324;2023-11-19T14:26:57;2.47;;;1.60;;
21235;SDS011;10775;42.678;26.324;2023-11-19T14:29:26;2.80;;;1.85;;
21235;SDS011;10775;42.678;26.324;2023-11-19T14:31:52;2.22;;;1.55;;
21235;SDS011;10775;42.678;26.324;2023-11-19T14:34:19;2.67;;;1.58;;
21235;SDS011;10775;42.678;26.324;2023-11-19T14:36:45;2.33;;;1.65;;
21235;SDS011;10775;42.678;26.324;2023-11-19T14:39:10;2.72;;;1.83;;
21235;SDS011;10775;42.678;26.324;2023-11-19T14:41:36;3.10;;;1.50;;
21235;SDS011;10775;42.678;26.324;2023-11-19T14:44:01;3.60;;;1.83;;
21235;SDS011;10775;42.678;26.324;2023-11-19T14:46:28;3.05;;;2.45;;
21235;SDS011;10775;42.678;26.324;2023-11-19T14:48:54;4.68;;;3.00;;
21235;SDS011;10775;42.678;26.324;2023-11-19T14:51:19;3.03;;;2.08;;
21235;SDS011;10775;42.678;26.324;2023-11-19T14:53:45;4.45;;;2.65;;
21235;SDS011;10775;42.678;26.324;2023-11-19T14:56:11;5.65;;;2.90;;
21235;SDS011;10775;42.678;26.324;2023-11-19T14:58:40;4.93;;;2.88;;
21235;SDS011;10775;42.678;26.324;2023-11-19T15:01:05;2.63;;;1.70;;
21235;SDS011;10775;42.678;26.324;2023-11-19T15:03:32;4.72;;;2.53;;